sensor_id;sensor_type;location;lat;lon;timestamp;temperature;humidity
19862;DHT22;10093;48.148;8.542;2023-05-01T00:01:08;7.80;99.90
19862;DHT22;10093;48.148;8.542;2023-05-01T00:03:34;7.90;99.90
19862;DHT22;10093;48.148;8.542;2023-05-01T00:06:03;7.90;99.90
19862;DHT22;10093;48.148;8.542;2023-05-01T00:08:30;8.00;99.90
19862;DHT22;10093;48.148;8.542;2023-05-01T00:10:56;8.00;99.90
19862;DHT22;10093;48.148;8.542;2023-05-01T00:13:22;8.00;99.90
19862;DHT22;10093;48.148;8.542;2023-05-01T00:15:49;7.90;99.90
19862;DHT22;10093;48.148;8.542;2023-05-01T00:18:14;7.80;99.90
19862;DHT22;10093;48.148;8.542;2023-05-01T00:20:41;7.90;99.90
19862;DHT22;10093;48.148;8.542;2023-05-01T00:23:06;7.90;99.90
19862;DHT22;10093;48.148;8.542;2023-05-01T00:25:33;7.90;99.90
19862;DHT22;10093;48.148;8.542;2023-05-01T00:27:58;7.70;99.90
19862;DHT22;10093;48.148;8.542;2023-05-01T00:30:24;7.60;99.90
19862;DHT22;10093;48.148;8.542;2023-05-01T00:32:50;7.50;99.90
19862;DHT22;10093;48.148;8.542;2023-05-01T00:35:16;7.40;99.90
19862;DHT22;10093;48.148;8.542;2023-05-01T00:37:42;7.70;99.90
19862;DHT22;10093;48.148;8.542;2023-05-01T00:40:07;7.70;99.90
19862;DHT22;10093;48.148;8.542;2023-05-01T00:42:35;7.50;99.90
19862;DHT22;10093;48.148;8.542;2023-05-01T00:45:00;7.50;99.90
19862;DHT22;10093;48.148;8.542;2023-05-01T00:47:26;7.50;99.90
19862;DHT22;10093;48.148;8.542;2023-05-01T00:49:52;7.40;99.90
19862;DHT22;10093;48.148;8.542;2023-05-01T00:52:18;7.30;99.90
19862;DHT22;10093;48.148;8.542;2023-05-01T00:54:44;7.30;99.90
19862;DHT22;10093;48.148;8.542;2023-05-01T00:57:18;7.60;99.90
19862;DHT22;10093;48.148;8.542;2023-05-01T00:59:44;7.60;99.90
19862;DHT22;10093;48.148;8.542;2023-05-01T01:02:10;7.50;99.90
19862;DHT22;10093;48.148;8.542;2023-05-01T01:04:37;7.50;99.90
19862;DHT22;10093;48.148;8.542;2023-05-01T01:13:01;7.50;99.90
19862;DHT22;10093;48.148;8.542;2023-05-01T01:18:24;7.30;99.90
19862;DHT22;10093;48.148;8.542;2023-05-01T01:21:06;7.50;99.90
19862;DHT22;10093;48.148;8.542;2023-05-01T01:26:58;7.90;99.90
19862;DHT22;10093;48.148;8.542;2023-05-01T01:35:25;7.60;99.90
19862;DHT22;10093;48.148;8.542;2023-05-01T01:40:37;7.50;99.90
19862;DHT22;10093;48.148;8.542;2023-05-01T01:43:06;7.60;99.90
19862;DHT22;10093;48.148;8.542;2023-05-01T01:45:36;7.50;99.90
19862;DHT22;10093;48.148;8.542;2023-05-01T01:48:05;7.40;99.90
19862;DHT22;10093;48.148;8.542;2023-05-01T01:50:33;7.30;99.90
19862;DHT22;10093;48.148;8.542;2023-05-01T01:53:01;7.40;99.90
19862;DHT22;10093;48.148;8.542;2023-05-01T01:55:30;7.30;99.90
19862;DHT22;10093;48.148;8.542;2023-05-01T01:57:57;7.50;99.90
19862;DHT22;10093;48.148;8.542;2023-05-01T02:00:24;7.70;99.90
19862;DHT22;10093;48.148;8.542;2023-05-01T02:02:51;7.70;99.90
19862;DHT22;10093;48.148;8.542;2023-05-01T02:05:19;7.80;99.90
19862;DHT22;10093;48.148;8.542;2023-05-01T02:07:47;7.90;99.90
19862;DHT22;10093;48.148;8.542;2023-05-01T02:10:14;7.80;99.90
19862;DHT22;10093;48.148;8.542;2023-05-01T02:12:51;7.70;99.90
19862;DHT22;10093;48.148;8.542;2023-05-01T02:15:17;7.80;99.90
19862;DHT22;10093;48.148;8.542;2023-05-01T02:17:44;7.90;99.90
19862;DHT22;10093;48.148;8.542;2023-05-01T02:20:10;8.00;99.90
19862;DHT22;10093;48.148;8.542;2023-05-01T02:22:42;8.00;99.90
19862;DHT22;10093;48.148;8.542;2023-05-01T02:25:10;7.80;99.90
19862;DHT22;10093;48.148;8.542;2023-05-01T02:27:46;7.70;99.90
19862;DHT22;10093;48.148;8.542;2023-05-01T02:30:13;7.70;99.90
19862;DHT22;10093;48.148;8.542;2023-05-01T02:32:39;7.60;99.90
19862;DHT22;10093;48.148;8.542;2023-05-01T02:35:05;7.60;99.90
19862;DHT22;10093;48.148;8.542;2023-05-01T02:37:31;7.70;99.90
19862;DHT22;10093;48.148;8.542;2023-05-01T02:39:57;7.60;99.90
19862;DHT22;10093;48.148;8.542;2023-05-01T02:42:24;7.60;99.90
19862;DHT22;10093;48.148;8.542;2023-05-01T02:44:56;7.50;99.90
19862;DHT22;10093;48.148;8.542;2023-05-01T02:47:22;7.50;99.90
19862;DHT22;10093;48.148;8.542;2023-05-01T02:49:49;7.60;99.90
19862;DHT22;10093;48.148;8.542;2023-05-01T02:52:17;7.70;99.90
19862;DHT22;10093;48.148;8.542;2023-05-01T02:54:44;7.90;99.90
19862;DHT22;10093;48.148;8.542;2023-05-01T02:57:10;7.90;99.90
19862;DHT22;10093;48.148;8.542;2023-05-01T02:59:36;8.00;99.90
19862;DHT22;10093;48.148;8.542;2023-05-01T03:02:01;7.90;99.90
19862;DHT22;10093;48.148;8.542;2023-05-01T03:04:27;7.90;99.90
19862;DHT22;10093;48.148;8.542;2023-05-01T03:06:53;7.70;99.90
19862;DHT22;10093;48.148;8.542;2023-05-01T03:09:20;7.70;99.90
19862;DHT22;10093;48.148;8.542;2023-05-01T03:11:46;7.70;99.90
19862;DHT22;10093;48.148;8.542;2023-05-01T03:14:12;7.60;99.90
19862;DHT22;10093;48.148;8.542;2023-05-01T03:16:38;7.70;99.90
19862;DHT22;10093;48.148;8.542;2023-05-01T03:19:03;7.80;99.90
19862;DHT22;10093;48.148;8.542;2023-05-01T03:21:30;7.80;99.90
19862;DHT22;10093;48.148;8.542;2023-05-01T03:23:56;7.70;99.90
19862;DHT22;10093;48.148;8.542;2023-05-01T03:26:22;7.70;99.90
19862;DHT22;10093;48.148;8.542;2023-05-01T03:28:47;7.60;99.90
19862;DHT22;10093;48.148;8.542;2023-05-01T03:31:13;7.60;99.90
19862;DHT22;10093;48.148;8.542;2023-05-01T03:33:39;7.70;99.90
19862;DHT22;10093;48.148;8.542;2023-05-01T03:36:06;7.80;99.90
19862;DHT22;10093;48.148;8.542;2023-05-01T03:38:31;7.60;99.90
19862;DHT22;10093;48.148;8.542;2023-05-01T03:40:57;7.50;99.90
19862;DHT22;10093;48.148;8.542;2023-05-01T03:43:24;7.50;99.90
19862;DHT22;10093;48.148;8.542;2023-05-01T03:45:50;7.40;99.90
19862;DHT22;10093;48.148;8.542;2023-05-01T03:48:19;7.30;99.90
19862;DHT22;10093;48.148;8.542;2023-05-01T03:50:45;7.30;99.90
19862;DHT22;10093;48.148;8.542;2023-05-01T03:53:11;7.30;99.90
19862;DHT22;10093;48.148;8.542;2023-05-01T03:55:38;7.30;99.90
19862;DHT22;10093;48.148;8.542;2023-05-01T03:58:04;7.50;99.90
19862;DHT22;10093;48.148;8.542;2023-05-01T04:00:31;7.70;99.90
19862;DHT22;10093;48.148;8.542;2023-05-01T04:02:57;7.90;99.90
19862;DHT22;10093;48.148;8.542;2023-05-01T04:05:23;8.00;99.90
19862;DHT22;10093;48.148;8.542;2023-05-01T04:07:48;8.00;99.90
19862;DHT22;10093;48.148;8.542;2023-05-01T04:10:14;7.90;99.90
19862;DHT22;10093;48.148;8.542;2023-05-01T04:12:41;7.80;99.90
19862;DHT22;10093;48.148;8.542;2023-05-01T04:15:07;7.70;99.90
19862;DHT22;10093;48.148;8.542;2023-05-01T04:17:35;7.70;99.90
19862;DHT22;10093;48.148;8.542;2023-05-01T04:20:01;7.90;99.90
19862;DHT22;10093;48.148;8.542;2023-05-01T04:22:28;8.00;99.90
19862;DHT22;10093;48.148;8.542;2023-05-01T04:24:54;7.90;99.90
19862;DHT22;10093;48.148;8.542;2023-05-01T04:27:20;8.00;99.90
19862;DHT22;10093;48.148;8.542;2023-05-01T04:29:46;7.90;99.90
19862;DHT22;10093;48.148;8.542;2023-05-01T04:32:11;8.00;99.90
19862;DHT22;10093;48.148;8.542;2023-05-01T04:34:37;8.00;99.90
19862;DHT22;10093;48.148;8.542;2023-05-01T04:37:03;8.10;99.90
19862;DHT22;10093;48.148;8.542;2023-05-01T04:39:31;8.00;99.90
19862;DHT22;10093;48.148;8.542;2023-05-01T04:41:57;8.20;99.90
19862;DHT22;10093;48.148;8.542;2023-05-01T04:44:23;8.10;99.90
19862;DHT22;10093;48.148;8.542;2023-05-01T04:46:48;8.10;99.90
19862;DHT22;10093;48.148;8.542;2023-05-01T04:49:14;8.20;99.90
19862;DHT22;10093;48.148;8.542;2023-05-01T04:51:40;8.20;99.90
19862;DHT22;10093;48.148;8.542;2023-05-01T04:54:05;8.10;99.90
19862;DHT22;10093;48.148;8.542;2023-05-01T04:56:31;8.30;99.90
19862;DHT22;10093;48.148;8.542;2023-05-01T04:58:56;8.30;99.90
19862;DHT22;10093;48.148;8.542;2023-05-01T05:01:22;8.40;99.90
19862;DHT22;10093;48.148;8.542;2023-05-01T05:03:48;8.50;99.90
19862;DHT22;10093;48.148;8.542;2023-05-01T05:06:13;8.40;99.90
19862;DHT22;10093;48.148;8.542;2023-05-01T05:08:39;8.40;99.90
19862;DHT22;10093;48.148;8.542;2023-05-01T05:11:05;8.40;99.90
19862;DHT22;10093;48.148;8.542;2023-05-01T05:13:30;8.40;99.90
19862;DHT22;10093;48.148;8.542;2023-05-01T05:15:56;8.40;99.90
19862;DHT22;10093;48.148;8.542;2023-05-01T05:18:21;8.40;99.90
19862;DHT22;10093;48.148;8.542;2023-05-01T05:20:47;8.50;99.90
19862;DHT22;10093;48.148;8.542;2023-05-01T05:23:13;8.80;99.90
19862;DHT22;10093;48.148;8.542;2023-05-01T05:25:38;9.00;99.90
19862;DHT22;10093;48.148;8.542;2023-05-01T05:28:04;9.00;99.90
19862;DHT22;10093;48.148;8.542;2023-05-01T05:30:29;9.10;99.90
19862;DHT22;10093;48.148;8.542;2023-05-01T05:32:55;9.30;99.90
19862;DHT22;10093;48.148;8.542;2023-05-01T05:35:21;9.50;99.90
19862;DHT22;10093;48.148;8.542;2023-05-01T05:37:46;9.60;99.90
19862;DHT22;10093;48.148;8.542;2023-05-01T05:40:12;9.90;99.90
19862;DHT22;10093;48.148;8.542;2023-05-01T05:42:38;10.00;99.90
19862;DHT22;10093;48.148;8.542;2023-05-01T05:45:04;10.10;99.90
19862;DHT22;10093;48.148;8.542;2023-05-01T05:47:30;10.10;99.90
19862;DHT22;10093;48.148;8.542;2023-05-01T05:49:56;10.10;99.90
19862;DHT22;10093;48.148;8.542;2023-05-01T05:52:22;9.80;99.90
19862;DHT22;10093;48.148;8.542;2023-05-01T05:54:47;9.60;99.90
19862;DHT22;10093;48.148;8.542;2023-05-01T05:57:13;9.50;99.90
19862;DHT22;10093;48.148;8.542;2023-05-01T05:59:39;9.60;99.90
19862;DHT22;10093;48.148;8.542;2023-05-01T06:02:04;9.60;99.90
19862;DHT22;10093;48.148;8.542;2023-05-01T06:04:30;9.70;99.90
19862;DHT22;10093;48.148;8.542;2023-05-01T06:06:56;9.70;99.90
19862;DHT22;10093;48.148;8.542;2023-05-01T06:09:23;9.80;99.90
19862;DHT22;10093;48.148;8.542;2023-05-01T06:11:48;10.00;99.90
19862;DHT22;10093;48.148;8.542;2023-05-01T06:14:14;10.20;99.90
19862;DHT22;10093;48.148;8.542;2023-05-01T06:16:41;10.60;99.90
19862;DHT22;10093;48.148;8.542;2023-05-01T06:19:06;10.70;99.90
19862;DHT22;10093;48.148;8.542;2023-05-01T06:21:34;10.90;99.90
19862;DHT22;10093;48.148;8.542;2023-05-01T06:24:00;10.90;99.90
19862;DHT22;10093;48.148;8.542;2023-05-01T06:26:26;10.70;99.90
19862;DHT22;10093;48.148;8.542;2023-05-01T06:28:52;10.60;99.90
19862;DHT22;10093;48.148;8.542;2023-05-01T06:31:19;10.60;99.90
19862;DHT22;10093;48.148;8.542;2023-05-01T06:33:44;10.80;99.90
19862;DHT22;10093;48.148;8.542;2023-05-01T06:36:10;10.70;99.90
19862;DHT22;10093;48.148;8.542;2023-05-01T06:38:36;10.60;99.90
19862;DHT22;10093;48.148;8.542;2023-05-01T06:41:03;10.10;99.90
19862;DHT22;10093;48.148;8.542;2023-05-01T06:43:29;10.20;99.90
19862;DHT22;10093;48.148;8.542;2023-05-01T06:45:56;10.60;99.90
19862;DHT22;10093;48.148;8.542;2023-05-01T06:48:22;10.80;99.90
19862;DHT22;10093;48.148;8.542;2023-05-01T06:50:48;10.70;99.90
19862;DHT22;10093;48.148;8.542;2023-05-01T06:53:13;10.60;99.90
19862;DHT22;10093;48.148;8.542;2023-05-01T06:55:39;10.40;99.90
19862;DHT22;10093;48.148;8.542;2023-05-01T06:58:05;10.70;99.90
19862;DHT22;10093;48.148;8.542;2023-05-01T07:00:31;11.00;99.90
19862;DHT22;10093;48.148;8.542;2023-05-01T07:02:57;11.00;99.90
19862;DHT22;10093;48.148;8.542;2023-05-01T07:05:23;11.30;99.90
19862;DHT22;10093;48.148;8.542;2023-05-01T07:07:49;11.40;99.90
19862;DHT22;10093;48.148;8.542;2023-05-01T07:10:14;11.50;99.90
19862;DHT22;10093;48.148;8.542;2023-05-01T07:12:40;11.50;99.90
19862;DHT22;10093;48.148;8.542;2023-05-01T07:15:06;11.50;99.90
19862;DHT22;10093;48.148;8.542;2023-05-01T07:17:32;11.50;99.90
19862;DHT22;10093;48.148;8.542;2023-05-01T07:19:58;11.40;99.90
19862;DHT22;10093;48.148;8.542;2023-05-01T07:22:25;11.20;99.90
19862;DHT22;10093;48.148;8.542;2023-05-01T07:24:51;11.40;99.90
19862;DHT22;10093;48.148;8.542;2023-05-01T07:27:17;11.40;99.90
19862;DHT22;10093;48.148;8.542;2023-05-01T07:29:42;11.40;99.90
19862;DHT22;10093;48.148;8.542;2023-05-01T07:32:09;11.50;99.90
19862;DHT22;10093;48.148;8.542;2023-05-01T07:34:34;11.80;99.90
19862;DHT22;10093;48.148;8.542;2023-05-01T07:37:00;12.20;99.90
19862;DHT22;10093;48.148;8.542;2023-05-01T07:39:26;12.50;99.90
19862;DHT22;10093;48.148;8.542;2023-05-01T07:41:52;12.90;99.90
19862;DHT22;10093;48.148;8.542;2023-05-01T07:44:17;13.00;99.90
19862;DHT22;10093;48.148;8.542;2023-05-01T07:46:43;13.10;99.90
19862;DHT22;10093;48.148;8.542;2023-05-01T07:49:09;13.20;99.90
19862;DHT22;10093;48.148;8.542;2023-05-01T07:51:34;13.00;99.90
19862;DHT22;10093;48.148;8.542;2023-05-01T07:54:00;12.70;99.90
19862;DHT22;10093;48.148;8.542;2023-05-01T07:56:29;12.70;99.90
19862;DHT22;10093;48.148;8.542;2023-05-01T07:58:55;12.40;99.90
19862;DHT22;10093;48.148;8.542;2023-05-01T08:01:21;12.10;99.90
19862;DHT22;10093;48.148;8.542;2023-05-01T08:03:46;11.90;99.90
19862;DHT22;10093;48.148;8.542;2023-05-01T08:06:12;11.90;99.90
19862;DHT22;10093;48.148;8.542;2023-05-01T08:08:38;11.90;99.90
19862;DHT22;10093;48.148;8.542;2023-05-01T08:11:03;12.00;99.90
19862;DHT22;10093;48.148;8.542;2023-05-01T08:13:29;12.30;99.90
19862;DHT22;10093;48.148;8.542;2023-05-01T08:15:55;12.60;99.90
19862;DHT22;10093;48.148;8.542;2023-05-01T08:18:23;12.70;99.90
19862;DHT22;10093;48.148;8.542;2023-05-01T08:20:49;12.70;99.90
19862;DHT22;10093;48.148;8.542;2023-05-01T08:23:15;12.70;99.90
19862;DHT22;10093;48.148;8.542;2023-05-01T08:25:41;12.90;99.90
19862;DHT22;10093;48.148;8.542;2023-05-01T08:28:07;13.00;99.90
19862;DHT22;10093;48.148;8.542;2023-05-01T08:30:33;13.10;99.90
19862;DHT22;10093;48.148;8.542;2023-05-01T08:32:58;13.10;99.90
19862;DHT22;10093;48.148;8.542;2023-05-01T08:35:24;13.20;99.90
19862;DHT22;10093;48.148;8.542;2023-05-01T08:37:49;13.20;99.90
19862;DHT22;10093;48.148;8.542;2023-05-01T08:40:15;13.20;99.90
19862;DHT22;10093;48.148;8.542;2023-05-01T08:42:41;13.40;99.90
19862;DHT22;10093;48.148;8.542;2023-05-01T08:45:08;13.40;99.90
19862;DHT22;10093;48.148;8.542;2023-05-01T08:47:38;13.00;99.90
19862;DHT22;10093;48.148;8.542;2023-05-01T08:50:08;13.00;99.90
19862;DHT22;10093;48.148;8.542;2023-05-01T08:52:39;13.30;99.90
19862;DHT22;10093;48.148;8.542;2023-05-01T08:55:13;14.00;99.90
19862;DHT22;10093;48.148;8.542;2023-05-01T08:57:46;14.10;99.90
19862;DHT22;10093;48.148;8.542;2023-05-01T09:00:19;14.50;99.90
19862;DHT22;10093;48.148;8.542;2023-05-01T09:02:46;14.60;99.90
19862;DHT22;10093;48.148;8.542;2023-05-01T09:05:17;14.60;99.90
19862;DHT22;10093;48.148;8.542;2023-05-01T09:07:43;15.30;99.90
19862;DHT22;10093;48.148;8.542;2023-05-01T09:10:14;14.90;99.90
19862;DHT22;10093;48.148;8.542;2023-05-01T09:12:41;14.70;99.90
19862;DHT22;10093;48.148;8.542;2023-05-01T09:15:10;16.00;99.90
19862;DHT22;10093;48.148;8.542;2023-05-01T09:17:36;17.00;99.90
19862;DHT22;10093;48.148;8.542;2023-05-01T09:20:03;17.50;99.90
19862;DHT22;10093;48.148;8.542;2023-05-01T09:22:31;18.00;99.90
19862;DHT22;10093;48.148;8.542;2023-05-01T09:24:57;18.20;99.90
19862;DHT22;10093;48.148;8.542;2023-05-01T09:27:24;18.00;99.90
19862;DHT22;10093;48.148;8.542;2023-05-01T09:29:51;17.10;99.90
19862;DHT22;10093;48.148;8.542;2023-05-01T09:32:25;16.80;99.90
19862;DHT22;10093;48.148;8.542;2023-05-01T09:34:55;16.80;99.90
19862;DHT22;10093;48.148;8.542;2023-05-01T09:37:25;16.70;99.90
19862;DHT22;10093;48.148;8.542;2023-05-01T09:40:25;16.50;99.90
19862;DHT22;10093;48.148;8.542;2023-05-01T09:42:52;16.30;99.90
19862;DHT22;10093;48.148;8.542;2023-05-01T09:45:20;16.10;99.90
19862;DHT22;10093;48.148;8.542;2023-05-01T09:47:47;16.20;99.90
19862;DHT22;10093;48.148;8.542;2023-05-01T09:50:30;15.80;99.90
19862;DHT22;10093;48.148;8.542;2023-05-01T09:52:56;15.30;99.90
19862;DHT22;10093;48.148;8.542;2023-05-01T09:55:22;14.90;99.90
19862;DHT22;10093;48.148;8.542;2023-05-01T09:57:49;14.50;99.90
19862;DHT22;10093;48.148;8.542;2023-05-01T10:00:15;14.60;99.90
19862;DHT22;10093;48.148;8.542;2023-05-01T10:02:44;14.50;99.90
19862;DHT22;10093;48.148;8.542;2023-05-01T10:05:10;14.30;99.90
19862;DHT22;10093;48.148;8.542;2023-05-01T10:07:36;14.10;99.90
19862;DHT22;10093;48.148;8.542;2023-05-01T10:10:19;13.90;99.90
19862;DHT22;10093;48.148;8.542;2023-05-01T10:12:46;13.70;99.90
19862;DHT22;10093;48.148;8.542;2023-05-01T10:15:12;13.50;99.90
19862;DHT22;10093;48.148;8.542;2023-05-01T10:17:39;13.10;99.90
19862;DHT22;10093;48.148;8.542;2023-05-01T10:20:12;12.90;99.90
19862;DHT22;10093;48.148;8.542;2023-05-01T10:22:40;12.90;99.90
19862;DHT22;10093;48.148;8.542;2023-05-01T10:25:11;13.10;99.90
19862;DHT22;10093;48.148;8.542;2023-05-01T10:27:38;13.10;99.90
19862;DHT22;10093;48.148;8.542;2023-05-01T10:30:05;13.20;99.90
19862;DHT22;10093;48.148;8.542;2023-05-01T10:32:31;13.20;99.90
19862;DHT22;10093;48.148;8.542;2023-05-01T10:35:25;13.30;99.90
19862;DHT22;10093;48.148;8.542;2023-05-01T10:38:06;13.20;99.90
19862;DHT22;10093;48.148;8.542;2023-05-01T10:51:09;12.70;99.90
19862;DHT22;10093;48.148;8.542;2023-05-01T10:53:39;12.60;99.90
19862;DHT22;10093;48.148;8.542;2023-05-01T10:59:01;12.60;99.90
19862;DHT22;10093;48.148;8.542;2023-05-01T11:01:31;12.50;99.90
19862;DHT22;10093;48.148;8.542;2023-05-01T11:03:58;12.60;99.90
19862;DHT22;10093;48.148;8.542;2023-05-01T11:06:24;12.60;99.90
19862;DHT22;10093;48.148;8.542;2023-05-01T11:08:50;12.70;99.90
19862;DHT22;10093;48.148;8.542;2023-05-01T11:13:58;12.60;99.90
19862;DHT22;10093;48.148;8.542;2023-05-01T11:21:48;13.00;99.90
19862;DHT22;10093;48.148;8.542;2023-05-01T11:24:15;13.00;99.90
19862;DHT22;10093;48.148;8.542;2023-05-01T11:26:42;12.90;99.90
19862;DHT22;10093;48.148;8.542;2023-05-01T11:29:08;13.00;99.90
19862;DHT22;10093;48.148;8.542;2023-05-01T11:31:38;13.10;99.90
19862;DHT22;10093;48.148;8.542;2023-05-01T11:34:04;13.10;99.90
19862;DHT22;10093;48.148;8.542;2023-05-01T11:36:49;13.40;99.90
19862;DHT22;10093;48.148;8.542;2023-05-01T11:39:15;13.90;99.90
19862;DHT22;10093;48.148;8.542;2023-05-01T11:41:44;14.60;99.90
19862;DHT22;10093;48.148;8.542;2023-05-01T11:44:17;15.00;99.90
19862;DHT22;10093;48.148;8.542;2023-05-01T11:46:43;15.90;99.90
19862;DHT22;10093;48.148;8.542;2023-05-01T11:49:10;16.40;99.90
19862;DHT22;10093;48.148;8.542;2023-05-01T11:51:36;17.20;99.90
19862;DHT22;10093;48.148;8.542;2023-05-01T11:54:04;17.80;99.90
19862;DHT22;10093;48.148;8.542;2023-05-01T11:56:31;17.50;99.90
19862;DHT22;10093;48.148;8.542;2023-05-01T11:59:07;17.10;99.90
19862;DHT22;10093;48.148;8.542;2023-05-01T12:01:34;16.50;99.90
19862;DHT22;10093;48.148;8.542;2023-05-01T12:04:04;16.40;99.90
19862;DHT22;10093;48.148;8.542;2023-05-01T12:06:40;16.00;99.90
19862;DHT22;10093;48.148;8.542;2023-05-01T12:09:14;15.50;99.90
19862;DHT22;10093;48.148;8.542;2023-05-01T12:11:41;15.20;99.90
19862;DHT22;10093;48.148;8.542;2023-05-01T12:14:07;15.00;99.90
19862;DHT22;10093;48.148;8.542;2023-05-01T12:16:34;15.00;99.90
19862;DHT22;10093;48.148;8.542;2023-05-01T12:19:00;14.90;99.90
19862;DHT22;10093;48.148;8.542;2023-05-01T12:21:26;14.60;99.90
19862;DHT22;10093;48.148;8.542;2023-05-01T12:23:52;14.40;99.90
19862;DHT22;10093;48.148;8.542;2023-05-01T12:26:22;14.10;99.90
19862;DHT22;10093;48.148;8.542;2023-05-01T12:29:08;13.70;99.90
19862;DHT22;10093;48.148;8.542;2023-05-01T12:31:34;13.50;99.90
19862;DHT22;10093;48.148;8.542;2023-05-01T12:34:05;13.20;99.90
19862;DHT22;10093;48.148;8.542;2023-05-01T12:36:33;12.90;99.90
19862;DHT22;10093;48.148;8.542;2023-05-01T12:39:03;12.90;99.90
19862;DHT22;10093;48.148;8.542;2023-05-01T12:41:32;13.00;99.90
19862;DHT22;10093;48.148;8.542;2023-05-01T12:43:59;13.00;99.90
19862;DHT22;10093;48.148;8.542;2023-05-01T12:46:26;13.40;99.90
19862;DHT22;10093;48.148;8.542;2023-05-01T12:48:52;13.70;99.90
19862;DHT22;10093;48.148;8.542;2023-05-01T12:51:18;14.00;99.90
19862;DHT22;10093;48.148;8.542;2023-05-01T12:53:44;14.50;99.90
19862;DHT22;10093;48.148;8.542;2023-05-01T12:56:20;14.80;99.90
19862;DHT22;10093;48.148;8.542;2023-05-01T12:58:48;15.10;99.90
19862;DHT22;10093;48.148;8.542;2023-05-01T13:01:23;15.70;99.90
19862;DHT22;10093;48.148;8.542;2023-05-01T13:03:50;15.60;99.90
19862;DHT22;10093;48.148;8.542;2023-05-01T13:06:16;15.30;99.90
19862;DHT22;10093;48.148;8.542;2023-05-01T13:08:41;15.50;99.90
19862;DHT22;10093;48.148;8.542;2023-05-01T13:11:12;15.70;99.90
19862;DHT22;10093;48.148;8.542;2023-05-01T13:13:38;16.10;99.90
19862;DHT22;10093;48.148;8.542;2023-05-01T13:16:08;16.40;99.90
19862;DHT22;10093;48.148;8.542;2023-05-01T13:18:47;16.90;99.90
19862;DHT22;10093;48.148;8.542;2023-05-01T13:21:15;16.20;99.90
19862;DHT22;10093;48.148;8.542;2023-05-01T13:23:50;16.20;99.90
19862;DHT22;10093;48.148;8.542;2023-05-01T13:26:16;17.20;99.90
19862;DHT22;10093;48.148;8.542;2023-05-01T13:28:43;17.90;99.90
19862;DHT22;10093;48.148;8.542;2023-05-01T13:31:13;18.10;99.90
19862;DHT22;10093;48.148;8.542;2023-05-01T13:33:42;17.00;99.90
19862;DHT22;10093;48.148;8.542;2023-05-01T13:36:13;17.50;99.90
19862;DHT22;10093;48.148;8.542;2023-05-01T13:38:50;19.70;99.90
19862;DHT22;10093;48.148;8.542;2023-05-01T13:41:16;20.40;99.90
19862;DHT22;10093;48.148;8.542;2023-05-01T13:43:42;19.90;99.90
19862;DHT22;10093;48.148;8.542;2023-05-01T13:46:10;19.30;99.90
19862;DHT22;10093;48.148;8.542;2023-05-01T13:48:38;18.30;99.90
19862;DHT22;10093;48.148;8.542;2023-05-01T13:51:04;17.40;99.90
19862;DHT22;10093;48.148;8.542;2023-05-01T13:53:30;16.90;99.90
19862;DHT22;10093;48.148;8.542;2023-05-01T13:55:56;16.50;99.90
19862;DHT22;10093;48.148;8.542;2023-05-01T13:58:22;16.50;99.90
19862;DHT22;10093;48.148;8.542;2023-05-01T14:00:47;16.50;99.90
19862;DHT22;10093;48.148;8.542;2023-05-01T14:03:14;16.60;99.90
19862;DHT22;10093;48.148;8.542;2023-05-01T14:05:40;16.70;99.90
19862;DHT22;10093;48.148;8.542;2023-05-01T14:08:07;17.30;99.90
19862;DHT22;10093;48.148;8.542;2023-05-01T14:10:33;17.60;99.90
19862;DHT22;10093;48.148;8.542;2023-05-01T14:12:59;17.70;99.90
19862;DHT22;10093;48.148;8.542;2023-05-01T14:15:25;17.30;99.90
19862;DHT22;10093;48.148;8.542;2023-05-01T14:17:53;16.60;99.90
19862;DHT22;10093;48.148;8.542;2023-05-01T14:20:18;16.00;99.90
19862;DHT22;10093;48.148;8.542;2023-05-01T14:22:46;16.00;99.90
19862;DHT22;10093;48.148;8.542;2023-05-01T14:25:24;16.10;99.90
19862;DHT22;10093;48.148;8.542;2023-05-01T14:27:51;16.30;99.90
19862;DHT22;10093;48.148;8.542;2023-05-01T14:30:27;16.30;99.90
19862;DHT22;10093;48.148;8.542;2023-05-01T14:32:53;16.30;99.90
19862;DHT22;10093;48.148;8.542;2023-05-01T14:35:20;15.90;99.90
19862;DHT22;10093;48.148;8.542;2023-05-01T14:37:46;15.70;99.90
19862;DHT22;10093;48.148;8.542;2023-05-01T14:40:12;15.80;99.90
19862;DHT22;10093;48.148;8.542;2023-05-01T14:42:41;15.90;99.90
19862;DHT22;10093;48.148;8.542;2023-05-01T14:45:14;15.60;99.90
19862;DHT22;10093;48.148;8.542;2023-05-01T14:47:44;15.60;99.90
19862;DHT22;10093;48.148;8.542;2023-05-01T14:50:11;15.80;99.90
19862;DHT22;10093;48.148;8.542;2023-05-01T14:52:40;15.90;99.90
19862;DHT22;10093;48.148;8.542;2023-05-01T14:55:07;16.10;99.90
19862;DHT22;10093;48.148;8.542;2023-05-01T14:57:33;16.40;99.90
19862;DHT22;10093;48.148;8.542;2023-05-01T14:59:58;16.40;99.90
19862;DHT22;10093;48.148;8.542;2023-05-01T15:02:24;16.30;99.90
19862;DHT22;10093;48.148;8.542;2023-05-01T15:04:50;16.40;99.90
19862;DHT22;10093;48.148;8.542;2023-05-01T15:07:16;16.50;99.90
19862;DHT22;10093;48.148;8.542;2023-05-01T15:09:42;16.70;99.90
19862;DHT22;10093;48.148;8.542;2023-05-01T15:12:08;16.80;99.90
19862;DHT22;10093;48.148;8.542;2023-05-01T15:14:34;16.80;99.90
19862;DHT22;10093;48.148;8.542;2023-05-01T15:17:00;17.00;99.90
19862;DHT22;10093;48.148;8.542;2023-05-01T15:19:25;17.00;99.90
19862;DHT22;10093;48.148;8.542;2023-05-01T15:21:51;17.10;99.90
19862;DHT22;10093;48.148;8.542;2023-05-01T15:24:17;16.80;99.90
19862;DHT22;10093;48.148;8.542;2023-05-01T15:26:44;16.40;99.90
19862;DHT22;10093;48.148;8.542;2023-05-01T15:29:10;16.90;99.90
19862;DHT22;10093;48.148;8.542;2023-05-01T15:31:35;16.10;99.90
19862;DHT22;10093;48.148;8.542;2023-05-01T15:34:01;16.70;99.90
19862;DHT22;10093;48.148;8.542;2023-05-01T15:36:27;17.10;99.90
19862;DHT22;10093;48.148;8.542;2023-05-01T15:38:53;17.20;99.90
19862;DHT22;10093;48.148;8.542;2023-05-01T15:41:18;16.70;99.90
19862;DHT22;10093;48.148;8.542;2023-05-01T15:43:44;16.90;99.90
19862;DHT22;10093;48.148;8.542;2023-05-01T15:46:10;17.20;99.90
19862;DHT22;10093;48.148;8.542;2023-05-01T15:48:35;17.10;99.90
19862;DHT22;10093;48.148;8.542;2023-05-01T15:51:01;16.90;99.90
19862;DHT22;10093;48.148;8.542;2023-05-01T15:53:28;16.60;99.90
19862;DHT22;10093;48.148;8.542;2023-05-01T15:55:57;16.30;99.90
19862;DHT22;10093;48.148;8.542;2023-05-01T15:58:23;16.10;99.90
19862;DHT22;10093;48.148;8.542;2023-05-01T16:00:49;16.10;99.90
19862;DHT22;10093;48.148;8.542;2023-05-01T16:03:15;16.20;99.90
19862;DHT22;10093;48.148;8.542;2023-05-01T16:05:43;16.10;99.90
19862;DHT22;10093;48.148;8.542;2023-05-01T16:08:10;16.00;99.90
19862;DHT22;10093;48.148;8.542;2023-05-01T16:10:35;15.50;99.90
19862;DHT22;10093;48.148;8.542;2023-05-01T16:13:05;15.60;99.90
19862;DHT22;10093;48.148;8.542;2023-05-01T16:15:32;15.60;99.90
19862;DHT22;10093;48.148;8.542;2023-05-01T16:17:57;15.30;99.90
19862;DHT22;10093;48.148;8.542;2023-05-01T16:20:25;15.10;99.90